createdAt,value
2018-07-28T00:01:34.858Z,100236.81
2018-07-28T00:04:04.255Z,100228.22
2018-07-28T00:06:33.379Z,100227.13
2018-07-28T00:09:02.482Z,100229.84
2018-07-28T00:11:31.736Z,100233.77
2018-07-28T00:14:00.950Z,100233.64
2018-07-28T00:16:30.526Z,100231.44
2018-07-28T00:18:59.632Z,100231.31
2018-07-28T00:21:28.718Z,100232.88
2018-07-28T00:23:58.043Z,100226.13
2018-07-28T00:26:27.947Z,100226.02
2018-07-28T00:28:57.068Z,100227.76
2018-07-28T00:31:26.107Z,100226.41
2018-07-28T00:33:55.456Z,100218.66
2018-07-28T00:36:24.536Z,100217.69
2018-07-28T00:38:53.592Z,100221.30
2018-07-28T00:41:22.784Z,100213.05
2018-07-28T00:43:51.842Z,100216.45
2018-07-28T00:46:20.892Z,100214.44
2018-07-28T00:48:50.216Z,100233.59
2018-07-28T00:51:19.284Z,100256.70
2018-07-28T00:53:47.904Z,100250.70
2018-07-28T00:56:17.197Z,100243.73
2018-07-28T00:58:46.278Z,100225.46
2018-07-28T01:01:15.320Z,100245.15
2018-07-28T01:03:44.550Z,100262.67
2018-07-28T01:06:13.717Z,100276.62
2018-07-28T01:08:42.813Z,100262.64
2018-07-28T01:11:12.041Z,100247.49
2018-07-28T01:13:41.078Z,100222.15
2018-07-28T01:16:10.151Z,100227.91
2018-07-28T01:18:39.375Z,100232.28
2018-07-28T01:21:08.686Z,100234.14
2018-07-28T01:23:37.957Z,100237.58
2018-07-28T01:26:07.056Z,100228.92
2018-07-28T01:28:36.128Z,100226.56
2018-07-28T01:31:05.569Z,100229.83
2018-07-28T01:33:34.631Z,100233.55
2018-07-28T01:36:03.693Z,100237.30
2018-07-28T01:38:32.956Z,100225.61
2018-07-28T01:41:02.031Z,100214.78
2018-07-28T01:43:31.339Z,100214.00
2018-07-28T01:46:00.402Z,100212.83
2018-07-28T01:48:29.490Z,100212.89
2018-07-28T01:50:58.713Z,100209.22
2018-07-28T01:53:27.973Z,100203.61
2018-07-28T01:58:48.902Z,100182.77
2018-07-28T02:01:18.348Z,100179.28
2018-07-28T02:03:47.460Z,100190.13
2018-07-28T02:06:16.530Z,100185.75
2018-07-28T02:08:45.853Z,100169.89
2018-07-28T02:11:15.181Z,100170.90
2018-07-28T02:13:44.327Z,100172.50
2018-07-28T02:16:13.638Z,100166.61
2018-07-28T02:18:42.704Z,100166.98
2018-07-28T02:21:12.236Z,100159.94
2018-07-28T02:23:41.472Z,100150.16
2018-07-28T02:26:10.545Z,100149.17
2018-07-28T02:28:39.775Z,100149.05
2018-07-28T02:31:08.897Z,100147.53
2018-07-28T02:33:37.957Z,100142.31
2018-07-28T02:36:07.785Z,100134.56
2018-07-28T02:38:36.868Z,100143.05
2018-07-28T02:41:05.945Z,100152.39
2018-07-28T02:43:35.441Z,100163.36
2018-07-28T02:46:04.546Z,100172.34
2018-07-28T02:48:33.634Z,100252.11
2018-07-28T02:51:03.053Z,100253.23
2018-07-28T02:53:32.841Z,100244.53
2018-07-28T02:56:02.136Z,100259.60
2018-07-28T02:58:31.189Z,100244.73
2018-07-28T03:01:00.268Z,100210.00
2018-07-28T03:03:31.056Z,100257.18
2018-07-28T03:06:00.141Z,100216.88
2018-07-28T03:08:29.383Z,100195.98
2018-07-28T03:10:58.842Z,100255.80
2018-07-28T03:13:27.932Z,100244.67
2018-07-28T03:15:57.167Z,100180.20
2018-07-28T03:18:26.228Z,100225.81
2018-07-28T03:20:55.278Z,100258.59
2018-07-28T03:23:24.543Z,100232.42
2018-07-28T03:25:53.739Z,100228.87
2018-07-28T03:28:22.802Z,100234.28
2018-07-28T03:30:52.529Z,100243.06
2018-07-28T03:33:21.609Z,100234.86
2018-07-28T03:35:50.688Z,100209.34
2018-07-28T03:38:20.023Z,100218.16
2018-07-28T03:40:49.158Z,100223.37
2018-07-28T03:43:18.337Z,100204.52
2018-07-28T03:45:47.634Z,100206.55
2018-07-28T03:48:17.109Z,100217.34
2018-07-28T03:50:46.206Z,100208.79
2018-07-28T03:53:15.258Z,100202.05
2018-07-28T03:55:44.314Z,100207.80
2018-07-28T03:58:13.381Z,100198.70
2018-07-28T04:00:42.424Z,100201.41
2018-07-28T04:03:11.917Z,100203.46
2018-07-28T04:05:40.999Z,100198.06
2018-07-28T04:08:10.071Z,100197.39
2018-07-28T04:10:39.619Z,100197.06
2018-07-28T04:13:08.699Z,100182.05
2018-07-28T04:15:37.746Z,100182.22
2018-07-28T04:18:06.848Z,100185.10
2018-07-28T04:20:35.923Z,100193.77
2018-07-28T04:23:05.069Z,100179.59
2018-07-28T04:25:34.483Z,100172.17
2018-07-28T04:28:03.522Z,100172.52
2018-07-28T04:30:32.595Z,100163.72
2018-07-28T04:33:01.974Z,100167.62
2018-07-28T04:35:31.173Z,100166.77
2018-07-28T04:38:00.254Z,100160.88
2018-07-28T04:40:29.326Z,100158.71
2018-07-28T04:42:58.418Z,100159.20
2018-07-28T04:45:27.760Z,100155.84
2018-07-28T04:47:56.829Z,100150.15
2018-07-28T04:50:25.914Z,100171.23
2018-07-28T04:52:55.098Z,100163.64
2018-07-28T04:55:24.211Z,100147.27
2018-07-28T04:57:53.873Z,100135.92
2018-07-28T05:00:22.944Z,100138.62
2018-07-28T05:02:52.164Z,100140.78
2018-07-28T05:05:21.434Z,100135.63
2018-07-28T05:07:50.808Z,100130.45
2018-07-28T05:10:19.886Z,100133.11
2018-07-28T05:12:49.424Z,100142.00
2018-07-28T05:15:18.501Z,100134.40
2018-07-28T05:17:47.590Z,100128.27
2018-07-28T05:20:16.771Z,100127.20
2018-07-28T05:22:46.243Z,100130.52
2018-07-28T05:25:15.290Z,100124.44
2018-07-28T05:27:44.375Z,100122.59
2018-07-28T05:30:13.724Z,100125.80
2018-07-28T05:32:43.341Z,100128.14
2018-07-28T05:35:12.484Z,100128.80
2018-07-28T05:37:41.900Z,100141.64
2018-07-28T05:40:11.239Z,100189.34
2018-07-28T05:42:40.421Z,100223.13
2018-07-28T05:45:09.863Z,100227.03
2018-07-28T05:47:39.243Z,100227.79
2018-07-28T05:50:09.451Z,100225.05
2018-07-28T05:52:38.724Z,100226.63
2018-07-28T05:55:08.161Z,100242.15
2018-07-28T05:57:37.594Z,100253.84
2018-07-28T06:00:07.308Z,100242.36
2018-07-28T06:02:36.582Z,100230.45
2018-07-28T06:05:07.712Z,100225.70
2018-07-28T06:07:36.849Z,100231.42
2018-07-28T06:10:06.006Z,100239.11
2018-07-28T06:12:35.308Z,100224.16
2018-07-28T06:15:05.115Z,100215.78
2018-07-28T06:17:34.194Z,100208.07
2018-07-28T06:20:03.488Z,100223.40
2018-07-28T06:22:32.562Z,100234.64
2018-07-28T06:25:01.658Z,100251.31
2018-07-28T06:27:31.017Z,100262.57
2018-07-28T06:30:00.118Z,100274.20
2018-07-28T06:32:29.522Z,100280.95
2018-07-28T06:34:58.641Z,100268.52
2018-07-28T06:37:27.722Z,100260.31
2018-07-28T06:39:57.152Z,100260.89
2018-07-28T06:42:26.269Z,100258.41
2018-07-28T06:44:55.898Z,100258.41
2018-07-28T06:47:25.019Z,100261.97
2018-07-28T06:49:54.143Z,100260.94
2018-07-28T06:52:23.359Z,100277.81
2018-07-28T06:54:52.988Z,100280.98
2018-07-28T06:57:22.264Z,100293.97
2018-07-28T06:59:52.025Z,100290.27
2018-07-28T07:02:21.304Z,100295.67
2018-07-28T07:04:51.701Z,100294.99
2018-07-28T07:07:20.854Z,100292.81
2018-07-28T07:09:50.038Z,100287.94
2018-07-28T07:12:19.094Z,100293.64
2018-07-28T07:14:48.278Z,100304.28
2018-07-28T07:17:17.396Z,100312.20
2018-07-28T07:19:47.270Z,100317.42
2018-07-28T07:22:16.349Z,100316.08
2018-07-28T07:24:45.629Z,100312.20
2018-07-28T07:27:14.839Z,100321.44
2018-07-28T07:29:43.964Z,100321.97
2018-07-28T07:32:13.608Z,100314.20
2018-07-28T07:34:42.719Z,100320.75
2018-07-28T07:37:11.861Z,100321.59
2018-07-28T07:42:17.418Z,100307.22
2018-07-28T07:44:46.507Z,100300.36
2018-07-28T07:47:15.681Z,100291.26
2018-07-28T07:49:47.532Z,100292.94
2018-07-28T07:52:16.603Z,100295.47
2018-07-28T07:54:46.508Z,100287.55
2018-07-28T07:57:16.159Z,100293.61
2018-07-28T07:59:45.201Z,100284.21
2018-07-28T08:02:14.317Z,100284.68
2018-07-28T08:04:43.918Z,100283.40
2018-07-28T08:07:12.935Z,100291.36
2018-07-28T08:09:42.004Z,100291.84
2018-07-28T08:12:11.247Z,100290.28
2018-07-28T08:14:40.307Z,100298.56
2018-07-28T08:17:09.511Z,100303.08
2018-07-28T08:19:38.607Z,100306.34
2018-07-28T08:22:07.729Z,100315.44
2018-07-28T08:24:36.958Z,100316.41
2018-07-28T08:27:06.162Z,100323.86
2018-07-28T08:29:35.277Z,100344.48
2018-07-28T08:32:04.473Z,100357.35
2018-07-28T08:34:33.544Z,100366.27
2018-07-28T08:37:03.106Z,100373.35
2018-07-28T08:39:32.207Z,100376.41
2018-07-28T08:42:01.279Z,100369.48
2018-07-28T08:44:30.493Z,100360.91
2018-07-28T08:46:59.550Z,100364.76
2018-07-28T08:49:28.690Z,100366.45
2018-07-28T08:51:57.415Z,100367.28
2018-07-28T08:54:26.497Z,100366.92
2018-07-28T08:56:55.985Z,100375.36
2018-07-28T08:59:25.082Z,100376.34
2018-07-28T09:01:54.166Z,100382.59
2018-07-28T09:04:23.475Z,100382.45
2018-07-28T09:06:52.569Z,100388.16
2018-07-28T09:09:21.752Z,100402.16
2018-07-28T09:11:51.090Z,100408.89
2018-07-28T09:14:20.570Z,100402.27
2018-07-28T09:16:49.658Z,100408.00
2018-07-28T09:19:18.719Z,100416.44
2018-07-28T09:21:47.954Z,100411.56
2018-07-28T09:24:17.044Z,100404.27
2018-07-28T09:26:46.095Z,100402.02
2018-07-28T09:29:15.335Z,100395.27
2018-07-28T09:31:44.444Z,100398.80
2018-07-28T09:34:13.536Z,100390.22
2018-07-28T09:36:42.853Z,100385.27
2018-07-28T09:39:12.892Z,100377.07
2018-07-28T09:41:42.970Z,100382.13
2018-07-28T09:44:12.099Z,100385.14
2018-07-28T09:46:41.377Z,100376.97
2018-07-28T09:49:10.438Z,100382.35
2018-07-28T09:51:40.057Z,100378.53
2018-07-28T09:54:09.686Z,100376.08
2018-07-28T09:56:38.770Z,100369.19
2018-07-28T09:59:07.859Z,100384.47
2018-07-28T10:01:37.073Z,100380.87
2018-07-28T10:04:06.159Z,100381.88
2018-07-28T10:06:35.310Z,100386.15
2018-07-28T10:09:06.468Z,100383.72
2018-07-28T10:11:35.626Z,100392.09
2018-07-28T10:14:04.800Z,100393.84
2018-07-28T10:16:34.280Z,100394.77
2018-07-28T10:19:03.399Z,100394.42
2018-07-28T10:21:32.483Z,100385.19
2018-07-28T10:24:01.879Z,100388.03
2018-07-28T10:26:30.990Z,100390.92
2018-07-28T10:29:00.231Z,100388.19
2018-07-28T10:31:30.844Z,100391.08
2018-07-28T10:33:59.927Z,100390.95
2018-07-28T10:36:29.826Z,100393.06
2018-07-28T10:38:58.920Z,100389.64
2018-07-28T10:41:28.935Z,100393.86
2018-07-28T10:43:58.525Z,100395.70
2018-07-28T10:46:27.596Z,100398.57
2018-07-28T10:48:56.676Z,100402.55
2018-07-28T10:51:25.943Z,100395.14
2018-07-28T10:53:55.018Z,100395.80
2018-07-28T10:56:24.635Z,100396.41
2018-07-28T10:58:53.966Z,100393.98
2018-07-28T11:01:23.240Z,100398.47
2018-07-28T11:03:52.305Z,100398.66
2018-07-28T11:06:21.401Z,100394.66
2018-07-28T11:08:50.616Z,100396.61
2018-07-28T11:11:19.693Z,100399.51
2018-07-28T11:13:48.856Z,100398.66
2018-07-28T11:16:18.120Z,100390.78
2018-07-28T11:18:47.370Z,100384.51
2018-07-28T11:21:16.429Z,100376.26
2018-07-28T11:23:55.572Z,100375.10
2018-07-28T11:26:24.995Z,100374.84
2018-07-28T11:28:54.721Z,100364.56
2018-07-28T11:31:36.447Z,100356.86
2018-07-28T11:34:16.972Z,100357.20
2018-07-28T11:36:57.235Z,100353.58
2018-07-28T11:40:36.111Z,100345.25
2018-07-28T11:43:16.494Z,100347.27
2018-07-28T11:45:45.788Z,100351.66
2018-07-28T11:48:14.897Z,100347.00
2018-07-28T11:50:44.043Z,100352.70
2018-07-28T11:53:13.482Z,100338.41
2018-07-28T11:55:42.584Z,100349.92
2018-07-28T11:58:11.685Z,100348.48
2018-07-28T12:00:41.349Z,100356.08
2018-07-28T12:03:10.606Z,100354.05
2018-07-28T12:05:39.705Z,100356.64
2018-07-28T12:08:09.259Z,100358.27
2018-07-28T12:10:39.632Z,100354.47
2018-07-28T12:13:08.867Z,100358.98
2018-07-28T12:15:38.030Z,100366.03
2018-07-28T12:18:07.821Z,100365.19
2018-07-28T12:20:37.199Z,100369.19
2018-07-28T12:23:06.302Z,100369.13
2018-07-28T12:25:35.398Z,100372.61
2018-07-28T12:28:04.992Z,100361.77
2018-07-28T12:30:34.107Z,100368.56
2018-07-28T12:33:03.353Z,100375.09
2018-07-28T12:35:32.501Z,100372.36
2018-07-28T12:38:01.569Z,100373.63
2018-07-28T12:40:30.859Z,100383.30
2018-07-28T12:42:59.969Z,100376.02
2018-07-28T12:45:36.125Z,100382.43
2018-07-28T12:48:05.516Z,100388.41
2018-07-28T12:50:34.612Z,100380.50
2018-07-28T12:53:03.930Z,100382.23
2018-07-28T12:55:35.225Z,100386.25
2018-07-28T12:58:04.372Z,100385.05
2018-07-28T13:00:33.480Z,100390.06
2018-07-28T13:03:02.862Z,100393.41
2018-07-28T13:05:31.971Z,100394.42
2018-07-28T13:08:01.061Z,100390.03
2018-07-28T13:10:30.443Z,100387.05
2018-07-28T13:12:59.638Z,100384.54
2018-07-28T13:15:28.889Z,100395.23
2018-07-28T13:17:58.763Z,100393.87
2018-07-28T13:20:28.123Z,100403.65
2018-07-28T13:22:57.599Z,100408.22
2018-07-28T13:25:26.977Z,100407.91
2018-07-28T13:27:56.582Z,100396.78
2018-07-28T13:30:26.143Z,100389.98
2018-07-28T13:32:55.457Z,100383.18
2018-07-28T13:35:24.947Z,100392.91
2018-07-28T13:37:55.054Z,100393.23
2018-07-28T13:40:24.728Z,100390.22
2018-07-28T13:42:54.272Z,100395.53
2018-07-28T13:45:23.926Z,100386.91
2018-07-28T13:47:53.925Z,100388.20
2018-07-28T13:50:23.362Z,100378.36
2018-07-28T13:52:52.766Z,100375.17
2018-07-28T13:55:22.058Z,100385.95
2018-07-28T13:57:51.145Z,100375.44
2018-07-28T14:00:20.399Z,100372.01
2018-07-28T14:02:49.637Z,100380.25
2018-07-28T14:05:18.723Z,100380.66
2018-07-28T14:07:47.783Z,100378.89
2018-07-28T14:10:17.441Z,100371.88
2018-07-28T14:12:46.820Z,100372.02
2018-07-28T14:15:15.966Z,100376.20
2018-07-28T14:17:45.588Z,100365.23
2018-07-28T14:20:15.846Z,100361.55
2018-07-28T14:22:45.175Z,100360.33
2018-07-28T14:25:14.840Z,100372.15
2018-07-28T14:27:44.083Z,100374.23
2018-07-28T14:30:14.123Z,100380.75
2018-07-28T14:32:43.681Z,100375.30
2018-07-28T14:35:12.817Z,100382.05
2018-07-28T14:37:42.200Z,100378.10
2018-07-28T14:40:11.567Z,100376.91
2018-07-28T14:42:41.208Z,100371.98
2018-07-28T14:45:11.296Z,100375.00
2018-07-28T14:47:40.523Z,100377.60
2018-07-28T14:50:10.148Z,100386.72
2018-07-28T14:52:39.314Z,100393.26
2018-07-28T14:55:08.663Z,100387.55
2018-07-28T14:57:38.217Z,100394.08
2018-07-28T15:00:08.067Z,100399.52
2018-07-28T15:02:37.360Z,100397.34
2018-07-28T15:05:06.980Z,100405.67
2018-07-28T15:07:36.293Z,100415.45
2018-07-28T15:10:06.178Z,100423.41
2018-07-28T15:12:35.250Z,100422.64
2018-07-28T15:15:05.049Z,100432.65
2018-07-28T15:17:34.638Z,100445.45
2018-07-28T15:20:04.333Z,100446.81
2018-07-28T15:22:37.128Z,100443.59
2018-07-28T15:25:06.226Z,100442.34
2018-07-28T15:27:35.451Z,100455.15
2018-07-28T15:30:05.071Z,100448.29
2018-07-28T15:32:34.169Z,100450.89
2018-07-28T15:35:03.383Z,100464.89
2018-07-28T15:37:32.506Z,100460.45
2018-07-28T15:40:01.597Z,100452.69
2018-07-28T15:42:30.708Z,100457.10
2018-07-28T15:45:00.048Z,100452.91
2018-07-28T15:47:29.459Z,100443.70
2018-07-28T15:49:58.566Z,100454.29
2018-07-28T15:52:27.698Z,100442.62
2018-07-28T15:54:57.543Z,100449.59
2018-07-28T15:57:26.874Z,100452.25
2018-07-28T15:59:55.938Z,100452.11
2018-07-28T16:02:25.136Z,100453.97
2018-07-28T16:04:54.371Z,100448.00
2018-07-28T16:07:23.496Z,100453.87
2018-07-28T16:09:53.401Z,100445.05
2018-07-28T16:12:23.241Z,100458.72
2018-07-28T16:14:52.389Z,100460.45
2018-07-28T16:17:21.727Z,100455.77
2018-07-28T16:19:51.511Z,100459.77
2018-07-28T16:22:20.592Z,100458.72
2018-07-28T16:24:49.686Z,100462.72
2018-07-28T16:27:19.115Z,100467.64
2018-07-28T16:29:48.210Z,100465.66
2018-07-28T16:32:17.289Z,100472.56
2018-07-28T16:34:46.798Z,100476.00
2018-07-28T16:37:15.911Z,100484.74
2018-07-28T16:39:44.968Z,100492.23
2018-07-28T16:42:14.291Z,100490.19
2018-07-28T16:44:43.479Z,100493.30
2018-07-28T16:47:12.517Z,100498.27
2018-07-28T16:49:42.045Z,100499.73
2018-07-28T16:52:11.566Z,100515.20
2018-07-28T16:54:40.623Z,100525.04
2018-07-28T16:57:09.864Z,100525.52
2018-07-28T16:59:38.971Z,100533.98
2018-07-28T17:02:08.071Z,100543.60
2018-07-28T17:04:37.372Z,100554.33
2018-07-28T17:07:06.887Z,100548.44
2018-07-28T17:09:36.081Z,100552.66
2018-07-28T17:12:05.255Z,100556.91
2018-07-28T17:14:34.352Z,100558.52
2018-07-28T17:17:03.402Z,100568.14
2018-07-28T17:19:32.963Z,100570.11
2018-07-28T17:22:02.069Z,100582.46
2018-07-28T17:24:31.180Z,100585.66
2018-07-28T17:27:00.542Z,100589.42
2018-07-28T17:29:29.619Z,100600.47
2018-07-28T17:31:58.745Z,100594.10
2018-07-28T17:34:27.840Z,100590.27
2018-07-28T17:36:56.906Z,100596.37
2018-07-28T17:39:26.361Z,100596.23
2018-07-28T17:41:55.501Z,100602.20
2018-07-28T17:44:24.553Z,100606.08
2018-07-28T17:46:53.798Z,100607.66
2018-07-28T17:49:23.025Z,100615.06
2018-07-28T17:51:52.173Z,100612.40
2018-07-28T17:54:21.434Z,100614.89
2018-07-28T17:56:50.810Z,100625.27
2018-07-28T17:59:19.862Z,100628.51
2018-07-28T18:01:48.948Z,100631.58
2018-07-28T18:04:18.322Z,100642.91
2018-07-28T18:06:47.407Z,100636.41
2018-07-28T18:09:16.573Z,100645.92
2018-07-28T18:11:45.792Z,100648.78
2018-07-28T18:14:15.110Z,100655.36
2018-07-28T18:16:44.192Z,100651.98
2018-07-28T18:19:13.269Z,100656.54
2018-07-28T18:21:42.602Z,100658.65
2018-07-28T18:24:12.209Z,100662.85
2018-07-28T18:26:41.333Z,100667.16
2018-07-28T18:29:10.467Z,100672.16
2018-07-28T18:31:39.571Z,100677.13
2018-07-28T18:34:08.889Z,100675.78
2018-07-28T18:36:37.988Z,100675.60
2018-07-28T18:39:08.930Z,100686.78
2018-07-28T18:41:38.413Z,100693.78
2018-07-28T18:44:07.922Z,100694.45
2018-07-28T18:46:37.795Z,100702.94
2018-07-28T18:49:06.948Z,100713.44
2018-07-28T18:51:36.063Z,100709.20
2018-07-28T18:54:05.576Z,100699.26
2018-07-28T18:56:35.070Z,100704.52
2018-07-28T18:59:04.168Z,100705.19
2018-07-28T19:01:33.288Z,100707.73
2018-07-28T19:04:02.621Z,100710.59
2018-07-28T19:06:31.733Z,100712.97
2018-07-28T19:09:06.621Z,100712.44
2018-07-28T19:11:35.740Z,100717.84
2018-07-28T19:14:10.379Z,100710.09
2018-07-28T19:16:39.520Z,100715.17
2018-07-28T19:19:17.364Z,100722.26
2018-07-28T19:21:46.844Z,100736.27
2018-07-28T19:24:16.751Z,100742.35
2018-07-28T19:26:45.876Z,100747.41
2018-07-28T19:29:20.059Z,100745.56
2018-07-28T19:31:55.957Z,100759.07
2018-07-28T19:34:25.070Z,100759.05
2018-07-28T19:36:59.475Z,100770.19
2018-07-28T19:39:28.601Z,100767.10
2018-07-28T19:42:03.180Z,100774.88
2018-07-28T19:44:32.291Z,100781.93
2018-07-28T19:47:01.381Z,100785.63
2018-07-28T19:49:30.593Z,100798.77
2018-07-28T19:51:59.688Z,100798.43
2018-07-28T19:54:29.331Z,100807.88
2018-07-28T19:56:58.409Z,100811.94
2018-07-28T19:59:27.528Z,100820.36
2018-07-28T20:01:56.895Z,100827.94
2018-07-28T20:04:26.074Z,100821.99
2018-07-28T20:06:55.212Z,100822.77
2018-07-28T20:09:25.627Z,100827.45
2018-07-28T20:11:54.695Z,100827.86
2018-07-28T20:14:23.777Z,100837.84
2018-07-28T20:16:53.153Z,100832.93
2018-07-28T20:19:22.313Z,100840.63
2018-07-28T20:21:51.435Z,100841.23
2018-07-28T20:24:20.899Z,100841.84
2018-07-28T20:26:50.011Z,100845.92
2018-07-28T20:29:19.200Z,100845.57
2018-07-28T20:31:48.494Z,100858.05
2018-07-28T20:34:17.626Z,100853.86
2018-07-28T20:36:46.741Z,100862.25
2018-07-28T20:39:15.976Z,100860.92
2018-07-28T20:41:45.381Z,100864.75
2018-07-28T20:44:14.456Z,100875.97
2018-07-28T20:46:43.641Z,100874.02
2018-07-28T20:49:13.111Z,100879.41
2018-07-28T20:51:42.203Z,100878.89
2018-07-28T20:54:11.753Z,100885.81
2018-07-28T20:56:40.860Z,100882.66
2018-07-28T20:59:09.938Z,100889.03
2018-07-28T21:01:39.374Z,100886.97
2018-07-28T21:04:08.729Z,100891.69
2018-07-28T21:06:37.822Z,100887.38
2018-07-28T21:09:08.134Z,100895.52
2018-07-28T21:11:37.222Z,100900.84
2018-07-28T21:14:06.391Z,100895.02
2018-07-28T21:16:35.613Z,100895.20
2018-07-28T21:19:04.728Z,100906.95
2018-07-28T21:21:33.802Z,100906.05
2018-07-28T21:24:02.918Z,100905.45
2018-07-28T21:26:31.996Z,100907.52
2018-07-28T21:29:01.255Z,100911.18
2018-07-28T21:31:30.355Z,100914.58
2018-07-28T21:33:59.747Z,100914.25
2018-07-28T21:36:28.922Z,100913.53
2018-07-28T21:38:58.001Z,100906.17
2018-07-28T21:41:27.361Z,100910.55
2018-07-28T21:43:56.439Z,100916.50
2018-07-28T21:46:25.754Z,100920.53
2018-07-28T21:48:54.848Z,100917.73
2018-07-28T21:51:23.978Z,100917.50
2018-07-28T21:53:53.460Z,100918.44
2018-07-28T21:56:24.762Z,100925.58
2018-07-28T21:58:55.724Z,100930.48
2018-07-28T22:01:24.874Z,100935.12
2018-07-28T22:03:54.266Z,100941.21
2018-07-28T22:06:23.430Z,100946.94
2018-07-28T22:08:52.525Z,100952.47
2018-07-28T22:11:21.618Z,100951.52
2018-07-28T22:13:51.097Z,100957.41
2018-07-28T22:16:20.156Z,100965.66
2018-07-28T22:18:49.268Z,100955.27
2018-07-28T22:21:18.813Z,100963.27
2018-07-28T22:23:47.912Z,100964.84
2018-07-28T22:26:16.957Z,100970.84
2018-07-28T22:28:46.045Z,100975.94
2018-07-28T22:31:15.174Z,100974.88
2018-07-28T22:33:44.261Z,100975.80
2018-07-28T22:36:14.405Z,100977.01
2018-07-28T22:38:43.500Z,100983.73
2018-07-28T22:41:13.313Z,100983.98
2018-07-28T22:43:42.802Z,100989.22
2018-07-28T22:46:12.001Z,100982.62
2018-07-28T22:48:41.336Z,100972.97
2018-07-28T22:51:10.469Z,100969.57
2018-07-28T22:53:39.810Z,100966.88
2018-07-28T22:56:09.117Z,100970.53
2018-07-28T22:58:38.548Z,100970.05
2018-07-28T23:01:07.861Z,100972.59
2018-07-28T23:03:36.944Z,100978.06
2018-07-28T23:06:06.224Z,100972.97
2018-07-28T23:08:35.744Z,100973.45
2018-07-28T23:11:04.816Z,100977.58
2018-07-28T23:13:33.899Z,100980.55
2018-07-28T23:16:03.123Z,100976.36
2018-07-28T23:18:32.198Z,100974.24
2018-07-28T23:21:01.320Z,100976.49
2018-07-28T23:23:30.518Z,100970.39
2018-07-28T23:25:59.583Z,100973.02
2018-07-28T23:28:28.701Z,100973.84
2018-07-28T23:30:58.921Z,100980.02
2018-07-28T23:33:28.343Z,100980.55
2018-07-28T23:35:57.454Z,100985.86
2018-07-28T23:38:27.015Z,100989.45
2018-07-28T23:40:56.204Z,100997.64
2018-07-28T23:43:25.285Z,101000.98
2018-07-28T23:45:55.208Z,101006.56
2018-07-28T23:48:24.280Z,101003.88
2018-07-28T23:50:53.378Z,101008.11
2018-07-28T23:53:22.809Z,101002.60
2018-07-28T23:55:51.901Z,101008.25
2018-07-28T23:58:21.020Z,101011.04
